地図

経路データ

SID SEASON NUMBER BASIN SUBBASIN NAME ISO_TIME NATURE LAT LON WMO_WIND WMO_PRES WMO_AGENCY TRACK_TYPE DIST2LAND LANDFALL IFLAG USA_AGENCY USA_ATCF_ID USA_LAT USA_LON USA_RECORD USA_STATUS USA_WIND USA_PRES USA_SSHS USA_R34_NE USA_R34_SE USA_R34_SW USA_R34_NW USA_R50_NE USA_R50_SE USA_R50_SW USA_R50_NW USA_R64_NE USA_R64_SE USA_R64_SW USA_R64_NW USA_POCI USA_ROCI USA_RMW USA_EYE TOKYO_LAT TOKYO_LON TOKYO_GRADE TOKYO_WIND TOKYO_PRES TOKYO_R50_DIR TOKYO_R50_LONG TOKYO_R50_SHORT TOKYO_R30_DIR TOKYO_R30_LONG TOKYO_R30_SHORT TOKYO_LAND CMA_LAT CMA_LON CMA_CAT CMA_WIND CMA_PRES HKO_LAT HKO_LON HKO_CAT HKO_WIND HKO_PRES NEWDELHI_LAT NEWDELHI_LON NEWDELHI_GRADE NEWDELHI_WIND NEWDELHI_PRES NEWDELHI_CI NEWDELHI_DP NEWDELHI_POCI REUNION_LAT REUNION_LON REUNION_TYPE REUNION_WIND REUNION_PRES REUNION_TNUM REUNION_CI REUNION_RMW REUNION_R34_NE REUNION_R34_SE REUNION_R34_SW REUNION_R34_NW REUNION_R50_NE REUNION_R50_SE REUNION_R50_SW REUNION_R50_NW REUNION_R64_NE REUNION_R64_SE REUNION_R64_SW REUNION_R64_NW BOM_LAT BOM_LON BOM_TYPE BOM_WIND BOM_PRES BOM_TNUM BOM_CI BOM_RMW BOM_R34_NE BOM_R34_SE BOM_R34_SW BOM_R34_NW BOM_R50_NE BOM_R50_SE BOM_R50_SW BOM_R50_NW BOM_R64_NE BOM_R64_SE BOM_R64_SW BOM_R64_NW BOM_ROCI BOM_POCI BOM_EYE BOM_POS_METHOD BOM_PRES_METHOD NADI_LAT NADI_LON NADI_CAT NADI_WIND NADI_PRES WELLINGTON_LAT WELLINGTON_LON WELLINGTON_WIND WELLINGTON_PRES DS824_LAT DS824_LON DS824_STAGE DS824_WIND DS824_PRES TD9636_LAT TD9636_LON TD9636_STAGE TD9636_WIND TD9636_PRES TD9635_LAT TD9635_LON TD9635_WIND TD9635_PRES TD9635_ROCI NEUMANN_LAT NEUMANN_LON NEUMANN_CLASS NEUMANN_WIND NEUMANN_PRES MLC_LAT MLC_LON MLC_CLASS MLC_WIND MLC_PRES USA_GUST BOM_GUST BOM_GUST_PER REUNION_GUST REUNION_GUST_PER USA_SEAHGT USA_SEARAD_NE USA_SEARAD_SE USA_SEARAD_SW USA_SEARAD_NW STORM_SPEED STORM_DIR
1944275S04070 1945 66 SI MM NOT_NAMED 1944-10-01 06:00:00 NR -4.20000 69.8000 reunion main 1610 1610 _____O________ -1 -4.20000 69.8000 99 9.90000 3 223
1944275S04070 1945 66 SI MM NOT_NAMED 1944-10-01 09:00:00 NR -4.29592 69.7109 main 1625 1625 _____P________ -1 -4.29592 69.7109 99 3 223
1944275S04070 1945 66 SI MM NOT_NAMED 1944-10-01 12:00:00 NR -4.39222 69.6220 main 1641 1641 _____P________ -1 -4.39222 69.6220 99 3 223
1944275S04070 1945 66 SI MM NOT_NAMED 1944-10-01 15:00:00 NR -4.48930 69.5333 main 1656 1656 _____P________ -1 -4.48930 69.5333 99 3 222
1944275S04070 1945 66 SI MM NOT_NAMED 1944-10-01 18:00:00 NR -4.58754 69.4451 main 1671 1671 _____P________ -1 -4.58754 69.4451 99 3 222
1944275S04070 1945 66 SI MM NOT_NAMED 1944-10-01 21:00:00 NR -4.68734 69.3575 main 1681 1681 _____P________ -1 -4.68734 69.3575 99 3 221
1944275S04070 1945 66 SI MM NOT_NAMED 1944-10-02 00:00:00 NR -4.78909 69.2707 main 1696 1696 _____P________ -1 -4.78909 69.2707 99 3 220
1944275S04070 1945 66 SI MM NOT_NAMED 1944-10-02 03:00:00 NR -4.89318 69.1848 main 1711 1711 _____P________ -1 -4.89318 69.1848 99 3 218
1944275S04070 1945 66 SI MM NOT_NAMED 1944-10-02 06:00:00 NR -5.00000 69.1000 reunion main 1727 1727 _____O________ -1 -5.00000 69.1000 99 9.90000 3 218
1944275S04070 1945 66 SI MM NOT_NAMED 1944-10-02 09:00:00 NR -5.10995 69.0163 main 1742 1742 _____P________ -1 -5.10995 69.0163 99 3 217
1944275S04070 1945 66 SI MM NOT_NAMED 1944-10-02 12:00:00 NR -5.22341 68.9330 main 1758 1758 _____P________ -1 -5.22341 68.9330 99 3 216
1944275S04070 1945 66 SI MM NOT_NAMED 1944-10-02 15:00:00 NR -5.34079 68.8495 main 1773 1773 _____P________ -1 -5.34079 68.8495 99 3 215
1944275S04070 1945 66 SI MM NOT_NAMED 1944-10-02 18:00:00 NR -5.46246 68.7649 main 1792 1792 _____P________ -1 -5.46246 68.7649 99 3 215
1944275S04070 1945 66 SI MM NOT_NAMED 1944-10-02 21:00:00 NR -5.58883 68.6784 main 1807 1807 _____P________ -1 -5.58883 68.6784 99 3 214
1944275S04070 1945 66 SI MM NOT_NAMED 1944-10-03 00:00:00 NR -5.72028 68.5893 main 1823 1823 _____P________ -1 -5.72028 68.5893 99 3 214
1944275S04070 1945 66 SI MM NOT_NAMED 1944-10-03 03:00:00 NR -5.85721 68.4967 main 1848 1848 _____P________ -1 -5.85721 68.4967 99 3 214
1944275S04070 1945 66 SI MM NOT_NAMED 1944-10-03 06:00:00 NR -6.00000 68.4000 reunion main 1863 1863 _____O________ -1 -6.00000 68.4000 99 9.90000 3 214
1944275S04070 1945 66 SI MM NOT_NAMED 1944-10-03 09:00:00 NR -6.14470 68.3063 main 1878 1878 _____P________ -1 -6.14470 68.3063 99 4 213
1944275S04070 1945 66 SI MM NOT_NAMED 1944-10-03 12:00:00 NR -6.29525 68.2095 main 1903 1901 _____P________ -1 -6.29525 68.2095 99 4 213
1944275S04070 1945 66 SI MM NOT_NAMED 1944-10-03 15:00:00 NR -6.45128 68.1085 main 1891 1876 _____P________ -1 -6.45128 68.1085 99 4 213
1944275S04070 1945 66 SI MM NOT_NAMED 1944-10-03 18:00:00 NR -6.61240 68.0022 main 1876 1851 _____P________ -1 -6.61240 68.0022 99 4 213
1944275S04070 1945 66 SI MM NOT_NAMED 1944-10-03 21:00:00 NR -6.77821 67.8894 main 1851 1836 _____P________ -1 -6.77821 67.8894 99 4 214
1944275S04070 1945 66 SI MM NOT_NAMED 1944-10-04 00:00:00 NR -6.94834 67.7688 main 1836 1805 _____P________ -1 -6.94834 67.7688 99 4 216
1944275S04070 1945 66 SI MM NOT_NAMED 1944-10-04 03:00:00 NR -7.12240 67.6394 main 1805 1780 _____P________ -1 -7.12240 67.6394 99 4 217
1944275S04070 1945 66 SI MM NOT_NAMED 1944-10-04 06:00:00 NR -7.30000 67.5000 reunion main 1780 1755 _____O________ -1 -7.30000 67.5000 99 9.90000 5 218
1944275S04070 1945 66 SI MM NOT_NAMED 1944-10-04 09:00:00 NR -7.48779 67.3483 main 1749 1724 _____P________ -1 -7.48779 67.3483 99 5 219
1944275S04070 1945 66 SI MM NOT_NAMED 1944-10-04 12:00:00 NR -7.68096 67.1861 main 1724 1693 _____P________ -1 -7.68096 67.1861 99 5 220
1944275S04070 1945 66 SI MM NOT_NAMED 1944-10-04 15:00:00 NR -7.87679 67.0152 main 1693 1662 _____P________ -1 -7.87679 67.0152 99 5 221
1944275S04070 1945 66 SI MM NOT_NAMED 1944-10-04 18:00:00 NR -8.07254 66.8377 main 1662 1637 _____P________ -1 -8.07254 66.8377 99 5 223
1944275S04070 1945 66 SI MM NOT_NAMED 1944-10-04 21:00:00 NR -8.26546 66.6554 main 1637 1616 _____P________ -1 -8.26546 66.6554 99 5 224
1944275S04070 1945 66 SI MM NOT_NAMED 1944-10-05 00:00:00 NR -8.45283 66.4704 main 1606 1585 _____P________ -1 -8.45283 66.4704 99 5 225
1944275S04070 1945 66 SI MM NOT_NAMED 1944-10-05 03:00:00 NR -8.63192 66.2846 main 1585 1554 _____P________ -1 -8.63192 66.2846 99 5 227
1944275S04070 1945 66 SI MM NOT_NAMED 1944-10-05 06:00:00 NR -8.80000 66.1000 reunion main 1554 1538 _____O________ -1 -8.80000 66.1000 99 9.90000 5 227
1944275S04070 1945 66 SI MM NOT_NAMED 1944-10-05 09:00:00 NR -8.94024 65.9551 main 1538 1507 _____P________ -1 -8.94024 65.9551 99 4 226
1944275S04070 1945 66 SI MM NOT_NAMED 1944-10-05 12:00:00 NR -9.06901 65.8140 main 1507 1492 _____P________ -1 -9.06901 65.8140 99 4 228
1944275S04070 1945 66 SI MM NOT_NAMED 1944-10-05 15:00:00 NR -9.18986 65.6706 main 1492 1470 _____P________ -1 -9.18986 65.6706 99 4 231
1944275S04070 1945 66 SI MM NOT_NAMED 1944-10-05 18:00:00 NR -9.30637 65.5185 main 1470 1455 _____P________ -1 -9.30637 65.5185 99 4 233
1944275S04070 1945 66 SI MM NOT_NAMED 1944-10-05 21:00:00 NR -9.42210 65.3517 main 1455 1433 _____P________ -1 -9.42210 65.3517 99 4 236
1944275S04070 1945 66 SI MM NOT_NAMED 1944-10-06 00:00:00 NR -9.54060 65.1638 main 1433 1403 _____P________ -1 -9.54060 65.1638 99 5 239
1944275S04070 1945 66 SI MM NOT_NAMED 1944-10-06 03:00:00 NR -9.66540 64.9487 main 1397 1376 _____P________ -1 -9.66540 64.9487 99 5 240
1944275S04070 1945 66 SI MM NOT_NAMED 1944-10-06 06:00:00 NR -9.80000 64.7000 reunion main 1376 1349 _____O________ -1 -9.80000 64.7000 99 9.90000 6 242
1944275S04070 1945 66 SI MM NOT_NAMED 1944-10-06 09:00:00 NR -9.94699 64.4068 main 1349 1312 _____P________ -1 -9.94699 64.4068 99 7 244
1944275S04070 1945 66 SI MM NOT_NAMED 1944-10-06 12:00:00 NR -10.1012 64.0807 main 1312 1271 _____P________ -1 -10.1012 64.0807 99 7 245
1944275S04070 1945 66 SI MM NOT_NAMED 1944-10-06 15:00:00 NR -10.2630 63.7265 main 1271 1245 _____P________ -1 -10.2630 63.7265 99 8 245
1944275S04070 1945 66 SI MM NOT_NAMED 1944-10-06 18:00:00 NR -10.4328 63.3490 main 1240 1205 _____P________ -1 -10.4328 63.3490 99 8 245
1944275S04070 1945 66 SI MM NOT_NAMED 1944-10-06 21:00:00 NR -10.6109 62.9528 main 1205 1165 _____P________ -1 -10.6109 62.9528 99 9 245
1944275S04070 1945 66 SI MM NOT_NAMED 1944-10-07 00:00:00 NR -10.7979 62.5428 main 1160 1122 _____P________ -1 -10.7979 62.5428 99 9 245
1944275S04070 1945 66 SI MM NOT_NAMED 1944-10-07 03:00:00 NR -10.9941 62.1236 main 1122 1084 _____P________ -1 -10.9941 62.1236 99 9 244
1944275S04070 1945 66 SI MM NOT_NAMED 1944-10-07 06:00:00 NR -11.2000 61.7000 reunion main 1084 1043 _____O________ -1 -11.2000 61.7000 99 9.90000 10 244
1944275S04070 1945 66 SI MM NOT_NAMED 1944-10-07 09:00:00 NR -11.4362 61.2147 main 1043 993 _____P________ -1 -11.4362 61.2147 99 11 243
1944275S04070 1945 66 SI MM NOT_NAMED 1944-10-07 12:00:00 NR -11.6856 60.7109 main 993 955 _____P________ -1 -11.6856 60.7109 99 11 243
1944275S04070 1945 66 SI MM NOT_NAMED 1944-10-07 15:00:00 NR -11.9416 60.2064 main 955 909 _____P________ -1 -11.9416 60.2064 99 11 242
1944275S04070 1945 66 SI MM NOT_NAMED 1944-10-07 18:00:00 NR -12.1977 59.7189 main 909 878 _____P________ -1 -12.1977 59.7189 99 11 241
1944275S04070 1945 66 SI MM NOT_NAMED 1944-10-07 21:00:00 NR -12.4478 59.2664 main 878 838 _____P________ -1 -12.4478 59.2664 99 10 240
1944275S04070 1945 66 SI MM NOT_NAMED 1944-10-08 00:00:00 NR -12.6856 58.8670 main 838 811 _____P________ -1 -12.6856 58.8670 99 8 237
1944275S04070 1945 66 SI MM NOT_NAMED 1944-10-08 03:00:00 NR -12.9050 58.5388 main 810 785 _____P________ -1 -12.9050 58.5388 99 7 233
1944275S04070 1945 66 SI MM NOT_NAMED 1944-10-08 06:00:00 NR -13.1000 58.3000 reunion main 785 774 _____O________ -1 -13.1000 58.3000 99 9.90000 5 227
1944275S04070 1945 66 SI MM NOT_NAMED 1944-10-08 09:00:00 NR -13.2118 58.1964 main 774 762 _____P________ -1 -13.2118 58.1964 99 2 212
1944275S04070 1945 66 SI MM NOT_NAMED 1944-10-08 12:00:00 NR -13.2962 58.1809 main 762 751 _____P________ -1 -13.2962 58.1809 99 2 166
1944275S04070 1945 66 SI MM NOT_NAMED 1944-10-08 15:00:00 NR -13.3653 58.2385 main 751 751 _____P________ -1 -13.3653 58.2385 99 2 128
1944275S04070 1945 66 SI MM NOT_NAMED 1944-10-08 18:00:00 NR -13.4310 58.3544 main 753 742 _____P________ -1 -13.4310 58.3544 99 3 117
1944275S04070 1945 66 SI MM NOT_NAMED 1944-10-08 21:00:00 NR -13.5053 58.5134 main 743 733 _____P________ -1 -13.5053 58.5134 99 4 117
1944275S04070 1945 66 SI MM NOT_NAMED 1944-10-09 00:00:00 NR -13.6003 58.7006 main 735 725 _____P________ -1 -13.6003 58.7006 99 4 120
1944275S04070 1945 66 SI MM NOT_NAMED 1944-10-09 03:00:00 NR -13.7278 58.9011 main 727 709 _____P________ -1 -13.7278 58.9011 99 5 128
1944275S04070 1945 66 SI MM NOT_NAMED 1944-10-09 06:00:00 NR -13.9000 59.1000 reunion main 709 679 _____O________ -1 -13.9000 59.1000 99 9.90000 6 144
1944275S04070 1945 66 SI MM NOT_NAMED 1944-10-09 09:00:00 NR -14.1858 59.2439 main 679 652 _____P________ -1 -14.1858 59.2439 99 7 155
1944275S04070 1945 66 SI MM NOT_NAMED 1944-10-09 12:00:00 NR -14.5174 59.3980 main 652 612 _____P________ -1 -14.5174 59.3980 99 8 156
1944275S04070 1945 66 SI MM NOT_NAMED 1944-10-09 15:00:00 NR -14.8810 59.5581 main 615 587 _____P________ -1 -14.8810 59.5581 99 8 157
1944275S04070 1945 66 SI MM NOT_NAMED 1944-10-09 18:00:00 NR -15.2630 59.7201 main 577 550 _____P________ -1 -15.2630 59.7201 99 8 158
1944275S04070 1945 66 SI MM NOT_NAMED 1944-10-09 21:00:00 NR -15.6495 59.8796 main 554 519 _____P________ -1 -15.6495 59.8796 99 8 158
1944275S04070 1945 66 SI MM NOT_NAMED 1944-10-10 00:00:00 NR -16.0270 60.0324 main 519 490 _____P________ -1 -16.0270 60.0324 99 8 159
1944275S04070 1945 66 SI MM NOT_NAMED 1944-10-10 03:00:00 NR -16.3817 60.1740 main 490 468 _____P________ -1 -16.3817 60.1740 99 7 159
1944275S04070 1945 66 SI MM NOT_NAMED 1944-10-10 06:00:00 NR -16.7000 60.3000 reunion main 468 448 _____O________ -1 -16.7000 60.3000 99 9.90000 6 159
1944275S04070 1945 66 SI MM NOT_NAMED 1944-10-10 09:00:00 NR -16.9716 60.4070 main 448 438 _____P________ -1 -16.9716 60.4070 99 5 159
1944275S04070 1945 66 SI MM NOT_NAMED 1944-10-10 12:00:00 NR -17.1996 60.4963 main 438 429 _____P________ -1 -17.1996 60.4963 99 4 159
1944275S04070 1945 66 SI MM NOT_NAMED 1944-10-10 15:00:00 NR -17.3901 60.5703 main 429 421 _____P________ -1 -17.3901 60.5703 99 4 160
1944275S04070 1945 66 SI MM NOT_NAMED 1944-10-10 18:00:00 NR -17.5494 60.6316 main 421 413 _____P________ -1 -17.5494 60.6316 99 3 161
1944275S04070 1945 66 SI MM NOT_NAMED 1944-10-10 21:00:00 NR -17.6838 60.6827 main 414 407 _____P________ -1 -17.6838 60.6827 99 3 160
1944275S04070 1945 66 SI MM NOT_NAMED 1944-10-11 00:00:00 NR -17.7996 60.7260 main 407 400 _____P________ -1 -17.7996 60.7260 99 2 159
1944275S04070 1945 66 SI MM NOT_NAMED 1944-10-11 03:00:00 NR -17.9029 60.7643 main 408 401 _____P________ -1 -17.9029 60.7643 99 2 160
1944275S04070 1945 66 SI MM NOT_NAMED 1944-10-11 06:00:00 NR -18.0000 60.8000 reunion main 401 _____O________ -1 -18.0000 60.8000 99 9.90000 2 158

IBTrACS Databaseについて

本データベースは、米国NOAAが公開する1842年以降の世界の熱帯低気圧のベストトラックデータアーカイブInternational Best Track Archive for Climate Stewardship (IBTrACS)を、ウェブで閲覧しやすい形式に変換したものです。

最終更新日:2021-10-21